Time;durP1;ratioP1;P1;durP2;ratioP2;P2;SDS_P1;SDS_P2;PMS_P1;PMS_P2;Temp;Humidity;BMP_temperature;BMP_pressure;BME280_temperature;BME280_humidity;BME280_pressure;Samples;Min_cycle;Max_cycle;Signal;HPM_P1;HPM_P2
2023/05/02 00:00:27;;;;;;;0.20;0.20;;;;;;;19.03;45.45;101492.72;5055790;28;20044;-48
2023/05/02 00:02:52;;;;;;;0.20;0.20;;;;;;;19.03;45.51;101506.50;5074198;28;20211;-48
2023/05/02 00:05:19;;;;;;;0.30;0.30;;;;;;;19.04;45.72;101505.44;5074527;28;20059;-45
2023/05/02 00:07:45;;;;;;;0.30;0.30;;;;;;;19.04;45.52;101516.47;5077335;28;20083;-46
2023/05/02 00:10:10;;;;;;;0.30;0.30;;;;;;;19.04;45.67;101513.72;5077407;28;20448;-47
2023/05/02 00:12:37;;;;;;;0.30;0.30;;;;;;;19.04;45.47;101518.38;5078424;28;20044;-48
2023/05/02 00:15:03;;;;;;;0.30;0.30;;;;;;;19.04;45.69;101526.66;5095482;28;20263;-46
2023/05/02 00:17:29;;;;;;;0.20;0.20;;;;;;;19.03;45.20;101520.31;5097612;28;20040;-47
2023/05/02 00:19:55;;;;;;;0.30;0.30;;;;;;;19.04;45.31;101519.25;5090678;28;20059;-48
2023/05/02 00:22:21;;;;;;;0.30;0.30;;;;;;;19.04;45.70;101516.47;5077369;28;20127;-47
2023/05/02 00:24:46;;;;;;;0.30;0.30;;;;;;;19.04;45.68;101518.38;5077262;28;20048;-47
2023/05/02 00:27:13;;;;;;;0.20;0.20;;;;;;;19.04;45.71;101523.91;5076854;28;20400;-46
2023/05/02 00:29:39;;;;;;;0.30;0.30;;;;;;;19.04;45.72;101524.75;5076755;28;20138;-47
2023/05/02 00:32:05;;;;;;;0.30;0.30;;;;;;;19.05;45.53;101531.09;5059087;28;20090;-47
2023/05/02 00:34:31;;;;;;;0.30;0.30;;;;;;;19.03;45.78;101528.59;5077068;28;20051;-46
2023/05/02 00:36:57;;;;;;;0.20;0.20;;;;;;;19.03;45.75;101531.34;5076878;28;20093;-48
2023/05/02 00:39:23;;;;;;;0.20;0.20;;;;;;;19.05;45.48;101539.38;5041375;28;20154;-47
2023/05/02 00:41:55;;;;;;;0.30;0.30;;;;;;;19.04;45.78;101535.78;5092028;28;20472;-47
2023/05/02 00:44:21;;;;;;;0.30;0.30;;;;;;;19.03;45.55;101542.41;5096395;28;20093;-48
2023/05/02 00:46:47;;;;;;;0.30;0.30;;;;;;;19.04;45.53;101544.09;5096733;28;20096;-46
2023/05/02 00:49:12;;;;;;;0.20;0.20;;;;;;;19.03;45.62;101545.16;5096704;28;20055;-49
2023/05/02 00:51:39;;;;;;;0.20;0.20;;;;;;;19.05;45.47;101555.94;5076444;28;20078;-45
2023/05/02 00:54:04;;;;;;;0.20;0.20;;;;;;;19.05;45.80;101550.44;5076170;28;20067;-46
2023/05/02 00:56:30;;;;;;;0.20;0.20;;;;;;;19.04;45.53;101544.09;5058034;28;20389;-46
2023/05/02 00:58:56;;;;;;;0.20;0.20;;;;;;;19.04;45.74;101548.75;5076074;28;20048;-46
2023/05/02 01:01:48;;;;;;;0.30;0.30;;;;;;;19.04;45.69;101541.31;5057714;28;20476;-47
2023/05/02 01:07:05;;;;;;;0.30;0.30;;;;;;;19.04;45.51;101543.22;5174188;27;20596;-48
2023/05/02 01:10:10;;;;;;;0.20;0.20;;;;;;;19.04;45.51;101546.84;5134366;27;20050;-43
2023/05/02 01:12:42;;;;;;;0.30;0.30;;;;;;;19.03;45.65;101542.41;5126053;27;20054;-47
2023/05/02 01:15:11;;;;;;;0.30;0.30;;;;;;;19.03;45.70;101556.19;5147007;27;20085;-47
2023/05/02 01:17:37;;;;;;;0.30;0.30;;;;;;;19.03;45.39;101553.44;5132262;27;20039;-44
2023/05/02 01:20:07;;;;;;;0.20;0.20;;;;;;;19.04;45.70;101557.88;5139246;27;20433;-44
2023/05/02 01:22:33;;;;;;;0.20;0.20;;;;;;;19.05;45.62;101567.00;5135015;27;20058;-46
2023/05/02 01:25:39;;;;;;;0.20;0.20;;;;;;;19.05;45.76;101567.00;5153608;27;20130;-46
2023/05/02 01:28:16;;;;;;;0.20;0.20;;;;;;;19.05;45.39;101567.00;5126286;27;20573;-46
2023/05/02 01:30:43;;;;;;;0.20;0.20;;;;;;;19.04;45.72;101570.81;5152937;27;20043;-43
2023/05/02 01:33:11;;;;;;;0.20;0.20;;;;;;;19.04;45.56;101568.06;5134693;27;20058;-43
2023/05/02 01:35:36;;;;;;;0.20;0.20;;;;;;;19.04;45.69;101571.69;5114124;27;20417;-47
2023/05/02 01:38:05;;;;;;;0.20;0.20;;;;;;;19.05;45.51;101580.78;5132278;27;20551;-44
2023/05/02 01:40:32;;;;;;;0.20;0.20;;;;;;;19.05;45.80;101583.56;5110028;28;20050;-45
2023/05/02 01:42:58;;;;;;;0.20;0.20;;;;;;;19.04;45.55;101577.22;5113863;27;20566;-45
2023/05/02 01:45:24;;;;;;;0.20;0.20;;;;;;;19.05;45.65;101586.31;5076496;28;20047;-45
2023/05/02 01:47:50;;;;;;;0.20;0.20;;;;;;;19.05;45.78;101586.31;5111540;28;20074;-44
2023/05/02 01:50:19;;;;;;;0.20;0.20;;;;;;;19.05;45.74;101589.06;5116399;27;20055;-46
2023/05/02 01:52:46;;;;;;;0.30;0.30;;;;;;;19.04;45.64;101591.00;5130584;27;20039;-45
2023/05/02 01:55:14;;;;;;;0.30;0.30;;;;;;;19.04;45.40;101588.25;5131070;27;20487;-44
2023/05/02 01:57:41;;;;;;;;;;;;;;;19.04;45.81;101591.00;5130974;27;20564;-46
2023/05/02 02:00:07;;;;;;;0.30;0.30;;;;;;;19.03;45.65;101591.25;5125919;27;19926;-45
2023/05/02 02:02:34;;;;;;;0.20;0.20;;;;;;;19.05;45.53;101600.13;5113823;27;20431;-44
2023/05/02 02:05:00;;;;;;;0.20;0.20;;;;;;;19.04;45.54;101610.34;5115957;27;20044;-44
2023/05/02 02:07:25;;;;;;;0.20;0.20;;;;;;;19.05;45.80;101606.47;5090295;28;20048;-44
2023/05/02 02:09:51;;;;;;;0.30;0.30;;;;;;;19.04;45.57;101601.19;5100890;27;20415;-44
2023/05/02 02:12:25;;;;;;;0.30;0.30;;;;;;;19.04;45.78;101595.66;5131177;27;20079;-43
2023/05/02 02:14:56;;;;;;;0.20;0.20;;;;;;;19.04;45.58;101596.53;5112697;27;20043;-46
2023/05/02 02:17:26;;;;;;;0.20;0.20;;;;;;;19.04;45.87;101599.28;5097349;28;20043;-46
2023/05/02 02:19:55;;;;;;;0.20;0.20;;;;;;;19.05;45.72;101608.41;5116672;27;20079;-43
2023/05/02 02:22:22;;;;;;;0.20;0.20;;;;;;;19.05;45.50;101602.88;5117398;28;20043;-45
2023/05/02 02:24:49;;;;;;;0.20;0.20;;;;;;;19.05;45.77;101605.66;5099302;28;20054;-44
2023/05/02 02:27:14;;;;;;;0.20;0.20;;;;;;;19.04;45.82;101612.22;5117693;28;20425;-44
2023/05/02 02:29:40;;;;;;;0.20;0.20;;;;;;;19.04;45.45;101613.09;5116856;28;20062;-44
2023/05/02 02:32:06;;;;;;;0.20;0.20;;;;;;;19.05;45.59;101612.00;5117244;27;20513;-44
2023/05/02 02:34:31;;;;;;;0.30;0.30;;;;;;;19.05;45.59;101616.69;5117085;28;20410;-46
2023/05/02 02:37:03;;;;;;;0.20;0.20;;;;;;;19.05;45.50;101611.16;5117310;28;20099;-43
2023/05/02 02:39:49;;;;;;;0.20;0.20;;;;;;;19.04;45.70;101610.34;5116519;28;20051;-44
2023/05/02 02:42:22;;;;;;;0.30;0.30;;;;;;;19.05;45.50;101616.69;5116742;28;20400;-43
2023/05/02 02:47:49;;;;;;;0.30;0.30;;;;;;;19.04;45.60;101620.50;5175008;27;20115;-43
2023/05/02 02:50:26;;;;;;;0.20;0.20;;;;;;;19.04;45.75;101628.78;5152813;27;20047;-45
2023/05/02 02:53:08;;;;;;;0.30;0.30;;;;;;;19.04;45.71;101629.66;5151322;27;20408;-44
2023/05/02 02:55:44;;;;;;;0.30;0.30;;;;;;;19.05;45.64;101633.25;5151839;27;20054;-44
2023/05/02 02:58:41;;;;;;;0.30;0.30;;;;;;;19.05;45.53;101633.25;5153697;27;20080;-46
2023/05/02 03:01:11;;;;;;;0.20;0.20;;;;;;;19.05;45.85;101636.00;5122115;27;20392;-44
2023/05/02 03:03:38;;;;;;;0.30;0.30;;;;;;;19.04;45.78;101631.56;5113628;27;20800;-47
2023/05/02 03:06:04;;;;;;;0.20;0.20;;;;;;;19.04;45.51;101637.94;5167169;27;20133;-44
2023/05/02 03:08:39;;;;;;;0.30;0.30;;;;;;;19.04;45.52;101635.19;5155756;27;20282;-46
2023/05/02 03:11:04;;;;;;;0.20;0.20;;;;;;;19.05;45.81;101641.53;5121687;27;20513;-45
2023/05/02 03:13:30;;;;;;;0.20;0.20;;;;;;;19.04;45.60;101646.22;5152459;27;20046;-46
2023/05/02 03:16:35;;;;;;;0.20;0.20;;;;;;;19.05;45.79;101650.63;5152912;27;20050;-43
2023/05/02 03:19:02;;;;;;;0.28;0.28;;;;;;;19.05;45.79;101656.16;5125830;27;20140;-46
2023/05/02 03:21:30;;;;;;;0.25;0.25;;;;;;;19.04;45.60;101654.50;5133720;27;20046;-45
2023/05/02 03:23:59;;;;;;;0.20;0.20;;;;;;;19.04;45.75;101657.25;5152802;27;20173;-45
2023/05/02 03:26:25;;;;;;;0.20;0.20;;;;;;;19.05;45.70;101655.34;5152823;27;20501;-46
2023/05/02 03:28:51;;;;;;;0.20;0.20;;;;;;;19.04;45.54;101648.97;5153059;27;20168;-47
2023/05/02 03:31:17;;;;;;;0.20;0.20;;;;;;;19.05;45.86;101655.34;5149940;27;20875;-44
2023/05/02 03:33:43;;;;;;;0.20;0.20;;;;;;;19.05;45.58;101655.34;5132297;27;20339;-43
2023/05/02 03:36:09;;;;;;;0.20;0.20;;;;;;;19.04;45.79;101660.03;5113493;27;20054;-47
2023/05/02 03:38:35;;;;;;;0.22;0.22;;;;;;;19.04;45.65;101660.03;5113885;27;20134;-44
2023/05/02 03:41:01;;;;;;;0.20;0.20;;;;;;;19.05;45.64;101660.84;5113233;27;20095;-45
2023/05/02 03:43:27;;;;;;;0.22;0.22;;;;;;;19.07;45.54;101663.34;5131541;27;20602;-44
2023/05/02 03:45:53;;;;;;;0.20;0.20;;;;;;;19.04;45.62;101661.94;5131765;27;20098;-46
2023/05/02 03:48:19;;;;;;;0.20;0.20;;;;;;;19.05;45.75;101661.69;5132205;27;20039;-46
2023/05/02 03:50:44;;;;;;;0.30;0.30;;;;;;;19.04;45.78;101668.31;5107835;27;20182;-45
2023/05/02 03:53:10;;;;;;;0.20;0.20;;;;;;;19.05;45.77;101669.13;5122222;27;20058;-47
2023/05/02 03:55:39;;;;;;;0.20;0.20;;;;;;;19.05;45.61;101669.97;5131895;27;20043;-43
2023/05/02 03:58:06;;;;;;;0.30;0.30;;;;;;;19.05;45.72;101674.66;5105617;28;20101;-45
2023/05/02 04:00:31;;;;;;;0.28;0.28;;;;;;;19.04;45.56;101675.72;5106546;27;20466;-44
2023/05/02 04:03:00;;;;;;;0.30;0.30;;;;;;;19.04;45.47;101682.09;5097544;28;20490;-44
2023/05/02 04:05:25;;;;;;;0.20;0.20;;;;;;;19.05;45.78;101683.78;5099020;28;20073;-45
2023/05/02 04:07:51;;;;;;;0.30;0.30;;;;;;;19.06;45.49;101679.06;5117937;28;20410;-46
2023/05/02 04:10:17;;;;;;;0.30;0.30;;;;;;;19.05;45.75;101669.97;5118018;28;20368;-43
2023/05/02 04:12:43;;;;;;;0.22;0.22;;;;;;;19.05;45.58;101678.25;5117650;28;20095;-45
2023/05/02 04:15:09;;;;;;;0.20;0.20;;;;;;;19.05;45.70;101682.94;5117696;28;20039;-46
2023/05/02 04:17:35;;;;;;;0.30;0.30;;;;;;;19.05;45.68;101680.19;5117710;28;20313;-45
2023/05/02 04:20:01;;;;;;;0.20;0.20;;;;;;;19.05;45.47;101682.94;5117172;28;20047;-44
2023/05/02 04:22:30;;;;;;;0.20;0.20;;;;;;;19.05;45.63;101696.75;5117949;28;20425;-44
2023/05/02 04:24:56;;;;;;;0.30;0.30;;;;;;;19.05;45.73;101702.25;5116340;28;20481;-45
2023/05/02 04:27:22;;;;;;;0.20;0.20;;;;;;;19.04;45.81;101698.69;5117460;28;20053;-45
2023/05/02 04:29:49;;;;;;;0.30;0.30;;;;;;;19.05;45.62;101702.25;5112542;28;20051;-43
2023/05/02 04:32:14;;;;;;;0.20;0.20;;;;;;;19.05;46.07;101710.53;5061939;28;20486;-44
2023/05/02 04:34:40;;;;;;;0.20;0.20;;;;;;;19.05;45.83;101716.06;5096939;28;20054;-45
2023/05/02 04:37:06;;;;;;;0.20;0.20;;;;;;;19.04;45.51;101714.38;5096989;28;20051;-46
2023/05/02 04:39:32;;;;;;;0.30;0.30;;;;;;;19.04;45.55;101720.75;5096436;28;20043;-43
2023/05/02 04:41:58;;;;;;;0.30;0.30;;;;;;;19.04;45.63;101722.66;5079050;28;20044;-44
2023/05/02 04:44:24;;;;;;;0.20;0.20;;;;;;;19.03;45.80;101721.00;5111541;28;20494;-46
2023/05/02 04:46:49;;;;;;;0.20;0.20;;;;;;;19.03;45.72;101729.28;5113831;28;20483;-44
2023/05/02 04:49:15;;;;;;;0.20;0.20;;;;;;;19.03;45.65;101730.13;5107118;28;20040;-48
2023/05/02 04:51:41;;;;;;;0.22;0.22;;;;;;;19.03;45.78;101738.41;5113292;28;20057;-43
2023/05/02 04:54:06;;;;;;;0.25;0.25;;;;;;;19.04;45.55;101750.25;5115609;28;20415;-46
2023/05/02 04:56:32;;;;;;;0.30;0.30;;;;;;;19.04;45.78;101751.13;5116181;28;20039;-45
2023/05/02 04:58:58;;;;;;;0.30;0.30;;;;;;;19.03;45.62;101748.59;5104679;28;20124;-42
2023/05/02 05:01:26;;;;;;;0.20;0.20;;;;;;;19.03;45.93;101751.38;5114474;28;20051;-46
2023/05/02 05:03:53;;;;;;;0.20;0.20;;;;;;;19.03;45.60;101765.16;5117681;27;20053;-46
2023/05/02 05:06:19;;;;;;;0.20;0.20;;;;;;;19.03;45.85;101763.25;5085794;28;20039;-46
2023/05/02 05:08:45;;;;;;;0.30;0.30;;;;;;;19.04;45.58;101769.59;5108643;27;20050;-44
2023/05/02 05:11:11;;;;;;;0.30;0.30;;;;;;;19.04;45.56;101766.84;5108911;28;20039;-47
2023/05/02 05:13:37;;;;;;;0.30;0.30;;;;;;;19.04;45.83;101762.16;5102023;27;20111;-44
2023/05/02 05:16:03;;;;;;;0.20;0.20;;;;;;;19.04;45.53;101764.94;5083519;28;20111;-44
2023/05/02 05:18:29;;;;;;;0.30;0.30;;;;;;;19.03;45.70;101757.72;5103897;27;20043;-44
2023/05/02 05:20:55;;;;;;;0.30;0.30;;;;;;;19.05;45.61;101776.81;5091490;28;20493;-46
2023/05/02 05:23:21;;;;;;;0.20;0.20;;;;;;;19.04;45.56;101769.59;5108150;27;20439;-44
2023/05/02 05:25:46;;;;;;;0.30;0.30;;;;;;;19.04;45.82;101775.13;5104246;28;20058;-45
2023/05/02 05:28:12;;;;;;;0.30;0.30;;;;;;;19.03;45.73;101774.28;5105020;28;20108;-43
2023/05/02 05:30:38;;;;;;;0.20;0.20;;;;;;;19.02;45.85;101778.16;5108425;27;20043;-44
2023/05/02 05:33:04;;;;;;;0.30;0.30;;;;;;;19.03;45.70;101785.31;5093647;28;20039;-43
2023/05/02 05:35:31;;;;;;;0.30;0.30;;;;;;;19.05;45.81;101787.84;5105926;27;20096;-44
2023/05/02 05:37:57;;;;;;;0.30;0.30;;;;;;;19.04;45.73;101786.16;5091979;28;20066;-47
2023/05/02 05:40:22;;;;;;;0.30;0.30;;;;;;;19.03;45.52;101792.78;5106207;28;20531;-45
2023/05/02 05:42:48;;;;;;;0.30;0.30;;;;;;;19.04;45.98;101797.19;5098222;27;20541;-46
2023/05/02 05:45:15;;;;;;;0.20;0.20;;;;;;;19.04;45.60;101797.19;5107583;28;20035;-48
2023/05/02 05:47:41;;;;;;;0.20;0.20;;;;;;;19.03;45.81;101807.41;5092322;28;20258;-45
2023/05/02 05:50:07;;;;;;;0.20;0.20;;;;;;;19.04;45.53;101802.72;5111693;28;20051;-48
2023/05/02 05:52:33;;;;;;;0.30;0.30;;;;;;;19.04;45.88;101814.63;5091071;28;20119;-45
2023/05/02 05:54:59;;;;;;;0.30;0.30;;;;;;;19.04;45.79;101811.88;5086520;28;20047;-45
2023/05/02 05:57:24;;;;;;;0.20;0.20;;;;;;;19.05;45.80;101823.72;5103552;28;20047;-46
2023/05/02 05:59:50;;;;;;;0.20;0.20;;;;;;;19.04;45.73;101827.56;5093064;28;20047;-46
2023/05/02 06:02:16;;;;;;;0.20;0.20;;;;;;;19.05;45.66;101832.84;5101740;27;20041;-45
2023/05/02 06:04:42;;;;;;;0.20;0.20;;;;;;;19.05;45.71;101835.59;5069767;28;20051;-46
2023/05/02 06:07:08;;;;;;;0.30;0.30;;;;;;;19.03;45.85;101840.53;5085535;28;20227;-46
2023/05/02 06:09:33;;;;;;;0.20;0.20;;;;;;;19.06;45.78;101839.19;5098792;28;20047;-45
2023/05/02 06:12:01;;;;;;;0.20;0.20;;;;;;;19.07;46.27;101849.16;5102071;28;20077;-45
2023/05/02 06:14:26;;;;;;;0.20;0.20;;;;;;;19.03;48.00;101854.34;5081743;28;20047;-45
2023/05/02 06:16:52;;;;;;;0.20;0.20;;;;;;;19.07;46.21;101851.06;5099846;27;20422;-48
2023/05/02 06:19:18;;;;;;;0.28;0.28;;;;;;;19.08;46.40;101858.25;5100293;27;20047;-44
2023/05/02 06:21:43;;;;;;;0.20;0.20;;;;;;;19.07;46.09;101862.94;5098658;28;20543;-46
2023/05/02 06:24:09;;;;;;;0.20;0.20;;;;;;;19.08;45.97;101858.25;5104046;28;20049;-47
2023/05/02 06:26:35;;;;;;;0.30;0.30;;;;;;;19.07;46.24;101868.47;5107619;28;20625;-45
2023/05/02 06:29:01;;;;;;;0.20;0.20;;;;;;;19.08;46.70;101874.81;5089659;28;20039;-46
2023/05/02 06:31:27;;;;;;;0.20;0.20;;;;;;;19.08;46.07;101875.66;5103757;28;20039;-45
2023/05/02 06:33:52;;;;;;;0.20;0.20;;;;;;;19.08;46.22;101875.66;5096631;27;20093;-47
2023/05/02 06:36:18;;;;;;;0.20;0.20;;;;;;;19.12;46.16;101884.25;5101140;27;20043;-45
2023/05/02 06:38:44;;;;;;;0.20;0.20;;;;;;;19.11;46.37;101886.19;5100864;28;20722;-48
2023/05/02 06:41:13;;;;;;;0.20;0.20;;;;;;;19.10;46.09;101892.81;5095841;27;20120;-46
2023/05/02 06:43:42;;;;;;;0.30;0.30;;;;;;;19.11;46.12;101901.94;5099580;28;20054;-47
2023/05/02 06:46:08;;;;;;;0.30;0.30;;;;;;;19.12;45.96;101900.84;5094196;27;20078;-46
2023/05/02 06:48:35;;;;;;;0.25;0.25;;;;;;;19.11;45.91;101902.75;5098833;27;20046;-49
2023/05/02 06:51:02;;;;;;;0.20;0.20;;;;;;;19.11;45.82;101905.53;5096315;28;20490;-45
2023/05/02 06:53:29;;;;;;;0.20;0.20;;;;;;;19.12;46.42;101904.41;5094442;28;20059;-45
2023/05/02 06:55:58;;;;;;;0.30;0.30;;;;;;;19.13;46.01;101906.13;5098079;27;20089;-46
2023/05/02 06:58:23;;;;;;;0.20;0.20;;;;;;;19.14;45.88;101910.53;5094709;28;20419;-49
2023/05/02 07:00:49;;;;;;;0.30;0.30;;;;;;;19.16;46.55;101922.16;5086061;27;20051;-54
2023/05/02 07:03:15;;;;;;;0.20;0.20;;;;;;;19.21;45.93;101913.94;5093742;27;20053;-45
2023/05/02 07:05:41;;;;;;;0.20;0.20;;;;;;;19.20;46.21;101917.78;5083797;28;20320;-46
2023/05/02 07:08:07;;;;;;;0.20;0.20;;;;;;;19.18;46.13;101925.50;5063164;28;20043;-45
2023/05/02 07:10:33;;;;;;;0.20;0.20;;;;;;;19.16;46.13;101927.66;5084633;28;20043;-45
2023/05/02 07:12:59;;;;;;;0.20;0.20;;;;;;;19.17;46.92;101931.25;5079313;27;20054;-46
2023/05/02 07:15:24;;;;;;;0.20;0.20;;;;;;;19.02;49.62;101931.91;5093367;27;20471;-44
2023/05/02 07:17:50;;;;;;;0.20;0.20;;;;;;;19.02;49.62;101935.50;5092576;27;20134;-43
2023/05/02 07:20:16;;;;;;;0.30;0.30;;;;;;;19.02;49.81;101940.19;5096662;27;20047;-45
2023/05/02 07:22:42;;;;;;;0.25;0.25;;;;;;;19.03;50.18;101941.84;5089900;28;20040;-42
2023/05/02 07:25:08;;;;;;;0.30;0.30;;;;;;;19.11;49.46;101940.59;5090248;27;20095;-47
2023/05/02 07:27:33;;;;;;;0.20;0.20;;;;;;;19.14;48.46;101938.16;5079143;28;20047;-47
2023/05/02 07:30:00;;;;;;;0.30;0.30;;;;;;;19.17;47.84;101940.41;5099779;27;20046;-47
2023/05/02 07:32:26;;;;;;;0.30;0.30;;;;;;;19.18;47.86;101949.53;5098203;27;20066;-45
2023/05/02 07:34:53;;;;;;;0.20;0.20;;;;;;;19.18;47.83;101949.53;5105980;27;20445;-47
2023/05/02 07:37:20;;;;;;;0.20;0.20;;;;;;;19.20;47.60;101955.59;5096761;27;20054;-49
2023/05/02 07:39:45;;;;;;;0.20;0.20;;;;;;;19.19;47.91;101963.06;5099588;27;20483;-45
2023/05/02 07:42:11;;;;;;;0.30;0.30;;;;;;;19.20;47.69;101956.44;5106192;27;20485;-46
2023/05/02 07:44:37;;;;;;;0.30;0.30;;;;;;;19.21;47.63;101971.94;5102815;27;20043;-46
2023/05/02 07:47:02;;;;;;;0.20;0.20;;;;;;;19.20;47.60;101964.72;5101697;28;20374;-46
2023/05/02 07:49:28;;;;;;;0.20;0.20;;;;;;;19.28;47.82;101980.03;5095940;28;20047;-46
2023/05/02 07:51:55;;;;;;;0.20;0.20;;;;;;;19.27;47.53;101976.44;5081224;28;20062;-45
2023/05/02 07:54:21;;;;;;;0.30;0.30;;;;;;;19.31;48.84;101990.56;5091699;27;20377;-43
2023/05/02 07:56:47;;;;;;;0.30;0.30;;;;;;;19.32;47.60;101988.63;5081173;27;20298;-50
2023/05/02 07:59:13;;;;;;;0.20;0.20;;;;;;;19.31;48.47;101990.56;5100141;28;20765;-47
2023/05/02 08:01:40;;;;;;;0.30;0.30;;;;;;;19.32;48.25;101999.69;5101211;27;20283;-45
2023/05/02 08:04:06;;;;;;;0.20;0.20;;;;;;;19.30;48.04;101992.50;5095512;27;20043;-46
2023/05/02 08:06:32;;;;;;;0.20;0.20;;;;;;;19.30;48.01;102005.47;5081221;27;20322;-47
2023/05/02 08:08:58;;;;;;;0.20;0.20;;;;;;;19.30;48.71;102002.72;5091324;28;20354;-46
2023/05/02 08:11:24;;;;;;;0.30;0.30;;;;;;;19.30;48.24;101999.97;5076239;27;20231;-46
2023/05/02 08:13:50;;;;;;;0.20;0.20;;;;;;;19.30;48.24;102000.78;5092026;28;20050;-46
2023/05/02 08:16:17;;;;;;;0.20;0.20;;;;;;;19.29;47.87;102001.03;5099011;28;20058;-45
2023/05/02 08:18:43;;;;;;;0.30;0.30;;;;;;;19.30;47.31;102014.59;5072895;27;20059;-48
2023/05/02 08:21:08;;;;;;;0.20;0.20;;;;;;;19.32;47.18;102022.63;5044981;28;20411;-46
2023/05/02 08:23:34;;;;;;;0.20;0.20;;;;;;;19.34;47.75;102030.63;5098141;27;20059;-46
2023/05/02 08:26:00;;;;;;;0.20;0.20;;;;;;;19.34;47.84;102031.47;5095186;27;20111;-47
2023/05/02 08:28:26;;;;;;;0.20;0.20;;;;;;;19.36;46.86;102034.81;5104435;27;20062;-50
2023/05/02 08:30:51;;;;;;;0.20;0.20;;;;;;;19.34;46.69;102034.22;5093333;27;20055;-47
2023/05/02 08:33:17;;;;;;;0.20;0.20;;;;;;;19.29;47.22;102040.53;5096400;28;20058;-47
2023/05/02 08:35:43;;;;;;;0.20;0.20;;;;;;;19.35;47.56;102040.63;5084001;28;20441;-48
2023/05/02 08:38:08;;;;;;;0.20;0.20;;;;;;;19.38;47.28;102049.22;5076190;28;20074;-47
2023/05/02 08:40:36;;;;;;;0.22;0.22;;;;;;;19.40;46.65;102051.72;5083759;27;20503;-46
2023/05/02 08:43:10;;;;;;;0.20;0.20;;;;;;;19.20;46.05;102050.34;5092121;28;20330;-45
2023/05/02 08:45:39;;;;;;;0.20;0.20;;;;;;;19.29;46.05;102054.31;5092816;27;20062;-44
2023/05/02 08:48:07;;;;;;;0.20;0.20;;;;;;;19.33;46.32;102059.34;5076724;28;20039;-48
2023/05/02 08:50:43;;;;;;;0.20;0.20;;;;;;;19.32;47.25;102055.75;5084535;28;20606;-47
2023/05/02 08:53:10;;;;;;;0.20;0.20;;;;;;;19.33;46.53;102062.94;5102869;27;20047;-46
2023/05/02 08:55:39;;;;;;;0.20;0.20;;;;;;;19.35;46.60;102062.72;5085679;27;20081;-46
2023/05/02 08:58:05;;;;;;;0.20;0.20;;;;;;;19.34;46.34;102058.25;5079487;28;20066;-45
2023/05/02 09:00:39;;;;;;;0.28;0.28;;;;;;;19.35;46.68;102074.59;5081908;28;20043;-46
2023/05/02 09:03:30;;;;;;;0.20;0.20;;;;;;;19.36;46.57;102064.38;5090364;28;20125;-45
2023/05/02 09:06:06;;;;;;;0.20;0.20;;;;;;;19.36;46.58;102061.63;5087548;28;20043;-47
2023/05/02 09:08:33;;;;;;;0.20;0.20;;;;;;;19.35;45.88;102077.34;5084821;28;20134;-45
2023/05/02 09:11:02;;;;;;;0.20;0.20;;;;;;;19.36;46.33;102081.78;5098892;27;20171;-46
2023/05/02 09:13:36;;;;;;;0.20;0.20;;;;;;;19.36;45.70;102078.19;5096893;27;20078;-45
2023/05/02 09:16:04;;;;;;;0.20;0.20;;;;;;;19.34;45.98;102086.72;5096591;27;20039;-45
2023/05/02 09:18:32;;;;;;;0.20;0.20;;;;;;;19.37;46.39;102082.63;5100060;28;20047;-46
2023/05/02 09:21:00;;;;;;;0.25;0.25;;;;;;;19.37;46.31;102085.38;5062938;28;20055;-46
2023/05/02 09:23:41;;;;;;;0.30;0.30;;;;;;;19.37;46.10;102085.38;5087348;28;20561;-46
2023/05/02 09:26:11;;;;;;;0.20;0.20;;;;;;;19.36;45.67;102090.06;5083485;27;20098;-48
2023/05/02 09:28:42;;;;;;;0.20;0.20;;;;;;;19.37;45.71;102100.03;5068026;28;20544;-48
2023/05/02 09:31:10;;;;;;;0.20;0.20;;;;;;;19.37;46.04;102111.06;5093457;28;20053;-45
2023/05/02 09:33:37;;;;;;;0.30;0.30;;;;;;;19.36;45.35;102109.41;5095232;27;20131;-46
2023/05/02 09:36:04;;;;;;;0.20;0.20;;;;;;;19.37;45.49;102110.25;5086459;28;20051;-44
2023/05/02 09:38:30;;;;;;;0.20;0.20;;;;;;;19.35;45.40;102118.78;5082606;27;20046;-45
2023/05/02 09:40:55;;;;;;;0.20;0.20;;;;;;;19.31;44.78;102112.09;5084885;28;20044;-46
2023/05/02 09:43:21;;;;;;;0.20;0.20;;;;;;;19.27;44.77;102114.53;5088880;27;20050;-46
2023/05/02 09:46:08;;;;;;;0.28;0.28;;;;;;;19.34;45.09;102124.56;5089258;28;20071;-46
2023/05/02 09:51:26;;;;;;;0.20;0.20;;;;;;;19.35;44.95;102131.78;5120723;27;20741;-48
2023/05/02 09:53:51;;;;;;;0.20;0.20;;;;;;;19.34;44.93;102139.19;5132699;27;20309;-47
2023/05/02 09:56:17;;;;;;;0.20;0.20;;;;;;;19.36;44.65;102137.03;5142232;27;20047;-49
2023/05/02 09:58:44;;;;;;;0.30;0.30;;;;;;;19.32;43.68;102141.38;5143984;27;20190;-47
2023/05/02 10:01:17;;;;;;;0.20;0.20;;;;;;;19.05;44.13;102141.22;5111761;27;20050;-47
2023/05/02 10:03:47;;;;;;;0.22;0.22;;;;;;;19.25;44.06;102137.94;5137477;27;20581;-48
2023/05/02 10:06:14;;;;;;;0.20;0.20;;;;;;;19.31;45.00;102148.00;5133814;27;20450;-47
2023/05/02 10:08:41;;;;;;;0.20;0.20;;;;;;;19.34;44.02;102146.66;5131170;27;20062;-47
2023/05/02 10:11:07;;;;;;;0.20;0.20;;;;;;;19.36;44.15;102145.31;5121059;27;20069;-48
2023/05/02 10:13:33;;;;;;;0.20;0.20;;;;;;;19.37;44.14;102144.22;5142202;27;20069;-48
2023/05/02 10:16:01;;;;;;;0.20;0.20;;;;;;;19.36;43.66;102145.31;5115642;27;20110;-48
2023/05/02 10:18:47;;;;;;;0.20;0.20;;;;;;;19.37;43.77;102149.75;5117534;27;20406;-50
2023/05/02 10:21:17;;;;;;;0.20;0.20;;;;;;;19.37;45.17;102144.22;5119078;27;20293;-46
2023/05/02 10:23:43;;;;;;;0.30;0.30;;;;;;;19.38;44.05;102151.41;5136349;27;20553;-48
2023/05/02 10:26:13;;;;;;;0.20;0.20;;;;;;;19.37;44.07;102146.16;5142225;27;20047;-46
2023/05/02 10:28:40;;;;;;;0.20;0.20;;;;;;;19.37;45.67;102143.38;5115186;27;20034;-49
2023/05/02 10:31:08;;;;;;;0.20;0.20;;;;;;;19.37;44.36;102140.63;5119656;27;20118;-49
2023/05/02 10:33:34;;;;;;;0.20;0.20;;;;;;;19.37;44.23;102140.63;5115003;27;20300;-50
2023/05/02 10:36:00;;;;;;;0.20;0.20;;;;;;;19.37;43.49;102141.47;5128117;27;20319;-47
2023/05/02 10:38:26;;;;;;;0.20;0.20;;;;;;;19.38;43.55;102134.00;5125751;27;20552;-48
2023/05/02 10:40:57;;;;;;;0.20;0.20;;;;;;;19.36;43.40;102138.97;5127010;27;20069;-47
2023/05/02 10:43:25;;;;;;;0.30;0.30;;;;;;;19.33;43.38;102144.97;5105572;27;20050;-47
2023/05/02 10:45:51;;;;;;;0.20;0.20;;;;;;;19.30;43.41;102152.69;5107862;27;20850;-46
2023/05/02 10:48:19;;;;;;;0.20;0.20;;;;;;;19.29;42.76;102152.94;5127323;27;20050;-47
2023/05/02 10:50:46;;;;;;;0.20;0.20;;;;;;;19.32;42.95;102154.38;5103390;27;20043;-49
2023/05/02 10:53:30;;;;;;;0.20;0.20;;;;;;;19.29;42.59;102156.53;5109471;27;20499;-49
2023/05/02 10:56:17;;;;;;;0.20;0.20;;;;;;;19.32;43.25;102157.13;5128484;27;20130;-48
2023/05/02 10:58:45;;;;;;;0.20;0.20;;;;;;;19.33;42.96;102154.09;5116190;27;20138;-47
2023/05/02 11:01:33;;;;;;;0.30;0.30;;;;;;;19.34;43.06;102154.94;5109376;27;20554;-47
2023/05/02 11:03:59;;;;;;;;;;;;;;;19.34;42.96;102166.81;5106206;27;20038;-50
2023/05/02 11:06:26;;;;;;;0.20;0.20;;;;;;;19.34;42.96;102158.53;5105235;27;19923;-49
2023/05/02 11:08:53;;;;;;;0.20;0.20;;;;;;;19.34;43.32;102158.53;5100059;27;20086;-47
2023/05/02 11:11:40;;;;;;;0.20;0.20;;;;;;;19.34;42.87;102157.69;5096942;27;20070;-46
2023/05/02 11:14:07;;;;;;;0.20;0.20;;;;;;;19.34;42.87;102163.22;5091043;27;20073;-52
2023/05/02 11:24:51;;;;;;;0.20;0.20;;;;;;;19.38;42.68;102156.09;5151363;27;20120;-45
2023/05/02 11:30:08;;;;;;;0.20;0.20;;;;;;;18.92;40.30;102158.97;5146762;27;20469;-44
2023/05/02 11:35:26;;;;;;;0.20;0.20;;;;;;;18.69;41.98;102146.09;5150031;27;20123;-48
2023/05/02 11:37:53;;;;;;;0.20;0.20;;;;;;;18.77;41.52;102156.75;5133133;27;20043;-52
2023/05/02 11:40:19;;;;;;;0.30;0.30;;;;;;;18.74;41.68;102161.94;5111680;27;20376;-45
2023/05/02 11:42:45;;;;;;;0.20;0.20;;;;;;;18.82;42.44;102158.75;5127907;27;20114;-51
2023/05/02 11:45:11;;;;;;;0.20;0.20;;;;;;;18.42;40.84;102148.59;5133703;27;20073;-46
2023/05/02 11:47:37;;;;;;;0.20;0.20;;;;;;;18.27;40.75;102162.13;5129476;27;20043;-46
2023/05/02 11:50:04;;;;;;;0.20;0.20;;;;;;;18.52;40.65;102157.09;5107320;27;20417;-47
2023/05/02 11:52:35;;;;;;;0.20;0.20;;;;;;;18.59;40.07;102154.19;5100475;27;20100;-47